createdAt,value
2022-11-06T00:02:49.183Z,7.6
2022-11-06T00:07:51.686Z,9.1
2022-11-06T00:12:53.609Z,7.2
2022-11-06T00:17:55.484Z,6.7
2022-11-06T00:22:57.361Z,5.9
2022-11-06T00:27:59.547Z,5.5
2022-11-06T00:33:01.566Z,5.6
2022-11-06T00:38:03.609Z,5.2
2022-11-06T00:43:05.724Z,5
2022-11-06T00:48:07.755Z,4.2
2022-11-06T00:53:10.701Z,6.5
2022-11-06T00:58:12.921Z,4.9
2022-11-06T01:03:16.428Z,5.1
2022-11-06T01:08:18.467Z,5.1
2022-11-06T01:13:20.460Z,4.2
2022-11-06T01:18:22.410Z,4.1
2022-11-06T01:23:24.334Z,4.7
2022-11-06T01:28:26.313Z,3.8
2022-11-06T01:33:28.596Z,3.6
2022-11-06T01:38:30.673Z,4.3
2022-11-06T01:43:32.573Z,5
2022-11-06T01:48:34.608Z,4.7
2022-11-06T01:53:36.576Z,4.7
2022-11-06T01:58:38.627Z,4.6
2022-11-06T02:03:40.489Z,3.7
2022-11-06T02:08:42.536Z,4.5
2022-11-06T02:13:45.002Z,4.7
2022-11-06T02:18:46.869Z,4.5
2022-11-06T02:23:48.839Z,4.4
2022-11-06T02:28:51.075Z,4.5
2022-11-06T02:33:53.021Z,4.5
2022-11-06T02:38:55.448Z,3.7
2022-11-06T02:43:57.349Z,3.6
2022-11-06T02:48:59.307Z,4.8
2022-11-06T02:54:02.118Z,4.4
2022-11-06T02:59:04.012Z,4.5
2022-11-06T03:04:06.307Z,5.2
2022-11-06T03:09:08.234Z,4.2
2022-11-06T03:14:10.163Z,4.5
2022-11-06T03:19:12.080Z,4.5
2022-11-06T03:24:14.137Z,5.3
2022-11-06T03:29:16.343Z,4.7
2022-11-06T03:34:18.382Z,4.7
2022-11-06T03:39:20.383Z,4.7
2022-11-06T03:44:22.540Z,4.5
2022-11-06T03:49:24.585Z,4.5
2022-11-06T03:54:26.551Z,4.8
2022-11-06T03:59:28.537Z,4.3
2022-11-06T04:04:30.537Z,3.9
2022-11-06T04:09:33.019Z,3.8
2022-11-06T04:14:34.966Z,3.8
2022-11-06T04:19:36.791Z,3.6
2022-11-06T04:24:39.014Z,3.3
2022-11-06T04:29:41.215Z,3.9
2022-11-06T04:34:43.266Z,3.1
2022-11-06T04:39:45.395Z,3.4
2022-11-06T04:44:47.531Z,3.1
2022-11-06T04:49:49.609Z,3.8
2022-11-06T04:54:52.211Z,3.7
2022-11-06T04:59:54.087Z,4
2022-11-06T05:04:56.090Z,3
2022-11-06T05:09:58.401Z,3.9
2022-11-06T05:15:00.684Z,4.3
2022-11-06T05:20:02.700Z,3.4
2022-11-06T05:25:04.615Z,3.5
2022-11-06T05:30:06.763Z,3.4
2022-11-06T05:35:08.679Z,3.3
2022-11-06T05:40:11.022Z,5.8
2022-11-06T05:45:13.322Z,30.3
2022-11-06T05:50:15.327Z,29.7
2022-11-06T05:55:17.627Z,17.8
2022-11-06T06:00:19.608Z,6.8
2022-11-06T06:05:21.465Z,13.7
2022-11-06T06:10:23.645Z,3.8
2022-11-06T06:15:25.531Z,4.6
2022-11-06T06:20:27.457Z,3.7
2022-11-06T06:25:29.699Z,3.2
2022-11-06T06:30:31.913Z,4.6
2022-11-06T06:35:33.869Z,27.7
2022-11-06T06:40:36.522Z,4.6
2022-11-06T06:45:39.082Z,3
2022-11-06T06:50:41.094Z,3
2022-11-06T06:55:43.108Z,3.4
2022-11-06T07:00:45.161Z,3.6
2022-11-06T07:05:47.905Z,3
2022-11-06T07:10:50.333Z,21.4
2022-11-06T07:15:52.247Z,3.9
2022-11-06T07:20:54.158Z,5
2022-11-06T07:25:56.120Z,3.8
2022-11-06T07:30:58.020Z,3.4
2022-11-06T07:36:00.208Z,3.5
2022-11-06T07:41:02.157Z,3.5
2022-11-06T07:46:04.108Z,2.8
2022-11-06T07:51:06.077Z,3.3
2022-11-06T07:56:08.075Z,3.5
2022-11-06T08:01:12.942Z,3.8
2022-11-06T08:06:10.473Z,2.8
2022-11-06T08:11:12.344Z,3.4
2022-11-06T08:16:14.371Z,5.5
2022-11-06T08:21:14.812Z,4.7
2022-11-06T08:26:16.822Z,5.1
2022-11-06T08:31:18.716Z,4
2022-11-06T08:36:20.712Z,4.4
2022-11-06T08:41:22.643Z,3.5
2022-11-06T08:46:24.490Z,2.5
2022-11-06T08:51:26.409Z,3.5
2022-11-06T08:56:28.373Z,3.5
2022-11-06T09:01:30.401Z,3.6
2022-11-06T09:06:33.461Z,3
2022-11-06T09:11:35.402Z,5.2
2022-11-06T09:16:37.467Z,3.2
2022-11-06T09:21:39.671Z,2.9
2022-11-06T09:26:41.878Z,2.6
2022-11-06T09:31:44.279Z,2.8
2022-11-06T09:36:46.277Z,2.9
2022-11-06T09:41:48.175Z,8.2
2022-11-06T09:46:50.081Z,2.9
2022-11-06T09:51:52.066Z,2.9
2022-11-06T09:56:55.290Z,2.9
2022-11-06T10:01:57.482Z,4.6
2022-11-06T10:07:00.079Z,3.4
2022-11-06T10:12:02.047Z,2.6
2022-11-06T10:17:04.136Z,2.2
2022-11-06T10:22:06.051Z,2.4
2022-11-06T10:27:08.167Z,3.1
2022-11-06T10:32:10.089Z,2.6
2022-11-06T10:37:12.064Z,3.1
2022-11-06T10:42:13.989Z,1.9
2022-11-06T10:47:15.871Z,2.7
2022-11-06T10:52:17.845Z,2.2
2022-11-06T10:57:19.738Z,3
2022-11-06T11:02:21.704Z,2.3
2022-11-06T11:07:24.032Z,2.5
2022-11-06T11:12:25.960Z,2.5
2022-11-06T11:17:27.997Z,2.4
2022-11-06T11:22:33.075Z,2.9
2022-11-06T11:27:35.595Z,2
2022-11-06T11:32:37.692Z,2.6
2022-11-06T11:37:39.608Z,2.8
2022-11-06T11:42:41.549Z,2.1
2022-11-06T11:47:43.478Z,4.7
2022-11-06T11:52:45.470Z,5
2022-11-06T11:57:47.640Z,3.8
2022-11-06T12:02:49.610Z,2.6
2022-11-06T12:07:51.913Z,3.3
2022-11-06T12:12:53.829Z,2.5
2022-11-06T12:17:55.764Z,3.5
2022-11-06T12:22:58.020Z,3.2
2022-11-06T12:27:59.903Z,3.7
2022-11-06T12:33:01.956Z,2.8
2022-11-06T12:38:03.923Z,2.8
2022-11-06T12:43:05.828Z,3.7
2022-11-06T12:48:07.712Z,13.4
2022-11-06T12:53:09.595Z,2.7
2022-11-06T12:58:12.057Z,2.7
2022-11-06T13:03:16.193Z,4.6
2022-11-06T13:08:18.379Z,2.8
2022-11-06T13:13:20.352Z,3.8
2022-11-06T13:18:22.215Z,3.9
2022-11-06T13:23:24.171Z,3.7
2022-11-06T13:28:26.114Z,5
2022-11-06T13:33:28.070Z,4.3
2022-11-06T13:38:29.938Z,4
2022-11-06T13:43:31.997Z,3.9
2022-11-06T13:48:37.147Z,23.7
2022-11-06T13:53:39.654Z,5.2
2022-11-06T13:58:41.702Z,5
2022-11-06T14:03:43.609Z,4.2
2022-11-06T14:08:45.497Z,5
2022-11-06T14:13:50.575Z,3.8
2022-11-06T14:18:51.521Z,5.2
2022-11-06T14:23:53.513Z,4.7
2022-11-06T14:28:56.008Z,4.6
2022-11-06T14:33:57.967Z,4.9
2022-11-06T14:38:59.965Z,5.7
2022-11-06T14:44:05.144Z,4.8
2022-11-06T14:49:07.550Z,5.4
2022-11-06T14:54:09.568Z,7.3
2022-11-06T14:59:14.329Z,21.5
2022-11-06T15:04:16.468Z,8
2022-11-06T15:09:18.426Z,7
2022-11-06T15:14:20.346Z,9.2
2022-11-06T15:19:22.333Z,7.8
2022-11-06T15:24:24.280Z,6.9
2022-11-06T15:29:26.216Z,8.6
2022-11-06T15:34:28.251Z,12.6
2022-11-06T15:39:30.422Z,16.8
2022-11-06T15:44:32.313Z,15.9
2022-11-06T15:49:34.290Z,14.8
2022-11-06T15:54:36.512Z,11.5
2022-11-06T15:59:38.831Z,28.2
2022-11-06T16:04:40.757Z,19
2022-11-06T16:09:42.944Z,19.3
2022-11-06T16:14:45.257Z,18.5
2022-11-06T16:19:47.426Z,18.3
2022-11-06T16:24:49.395Z,22
2022-11-06T16:29:51.615Z,19.8
2022-11-06T16:34:53.745Z,24.6
2022-11-06T16:39:56.738Z,27.1
2022-11-06T16:45:01.153Z,35
2022-11-06T16:50:02.392Z,29.5
2022-11-06T16:55:04.380Z,25.2
2022-11-06T17:00:11.012Z,18.8
2022-11-06T17:05:13.168Z,19.9
2022-11-06T17:10:15.136Z,17.4
2022-11-06T17:15:17.176Z,17.1
2022-11-06T17:20:19.038Z,20.1
2022-11-06T17:25:21.036Z,17
2022-11-06T17:30:23.055Z,17.3
2022-11-06T17:35:32.054Z,19.6
2022-11-06T17:40:25.773Z,16.5
2022-11-06T17:45:27.855Z,37.6
2022-11-06T17:50:32.176Z,24
2022-11-06T17:55:35.381Z,20.7
2022-11-06T18:00:37.783Z,27.3
2022-11-06T18:10:46.388Z,23.3
2022-11-06T18:15:48.484Z,33.1
2022-11-06T18:20:50.611Z,41.2
2022-11-06T18:25:52.921Z,37.4
2022-11-06T18:30:57.089Z,31.9
2022-11-06T18:35:59.014Z,30.9
2022-11-06T18:41:01.043Z,36.3
2022-11-06T18:46:03.055Z,35
2022-11-06T18:51:05.016Z,31.5
2022-11-06T18:56:07.084Z,32.8
2022-11-06T19:01:09.046Z,62.2
2022-11-06T19:06:09.499Z,31.5
2022-11-06T19:11:11.768Z,38.1
2022-11-06T19:16:13.722Z,55
2022-11-06T19:21:15.704Z,38
2022-11-06T19:26:30.400Z,40.1
2022-11-06T19:31:23.921Z,35.1
2022-11-06T19:36:26.031Z,29.8
2022-11-06T19:41:28.138Z,28.8
2022-11-06T19:46:35.479Z,28.5
2022-11-06T19:51:38.231Z,31.2
2022-11-06T19:57:26.689Z,26.6
2022-11-06T20:01:42.132Z,27.1
2022-11-06T20:06:45.449Z,28.2
2022-11-06T20:11:47.510Z,34.2
2022-11-06T20:21:59.169Z,38
2022-11-06T20:27:01.359Z,32.9
2022-11-06T20:32:01.598Z,32.4
2022-11-06T20:37:03.621Z,36.2
2022-11-06T20:42:05.866Z,30.8
2022-11-06T20:47:08.510Z,65.9
2022-11-06T20:52:14.944Z,31.3
2022-11-06T20:57:17.978Z,29
2022-11-06T21:02:21.095Z,32.9
2022-11-06T21:07:24.061Z,32.4
2022-11-06T21:12:26.043Z,33.3
2022-11-06T21:17:28.116Z,34
2022-11-06T21:22:30.200Z,33.8
2022-11-06T21:27:32.370Z,34.2
2022-11-06T21:32:34.702Z,36.2
2022-11-06T21:37:36.713Z,35.1
2022-11-06T21:42:38.710Z,36.3
2022-11-06T21:47:40.723Z,44.4
2022-11-06T21:52:42.732Z,40.2
2022-11-06T21:57:45.073Z,45.4
2022-11-06T22:02:48.519Z,39.2
2022-11-06T22:07:51.141Z,38.9
2022-11-06T22:12:53.094Z,35.1
2022-11-06T22:17:55.247Z,36.4
2022-11-06T22:22:57.800Z,36.7
2022-11-06T22:28:02.931Z,36.1
2022-11-06T22:33:04.993Z,38
2022-11-06T22:38:06.963Z,44
2022-11-06T22:43:09.003Z,47.5
2022-11-06T22:48:13.299Z,89.3
2022-11-06T22:53:15.110Z,48.1
2022-11-06T22:58:19.548Z,41.7
2022-11-06T23:03:21.686Z,43.9
2022-11-06T23:08:24.328Z,45.2
2022-11-06T23:13:26.365Z,79.8
2022-11-06T23:18:26.793Z,43.1
2022-11-06T23:23:29.310Z,40.4
2022-11-06T23:28:31.586Z,41
2022-11-06T23:33:33.557Z,34.4
2022-11-06T23:38:35.425Z,39.3
2022-11-06T23:43:37.465Z,34.4
2022-11-06T23:48:39.446Z,25.8
2022-11-06T23:53:41.386Z,28.5
2022-11-06T23:58:43.407Z,29.2
